< < Back
Terminal Aerodrome Forecast


Current Version              Previous Versions:   1  2  3  4  5  6  7  8  9  

Terminal Aerodrome Forecast

372
FTUS42 KCHS 011735
TAFSAV
TAF
KSAV 011735Z 0118/0218 VRB06KT P6SM FEW015
     FM012000 08009KT P6SM SCT018 BKN040
     FM020300 04005KT P6SM SCT015 BKN035
     FM021300 12011KT P6SM SCT025 BKN040=



Latest METAR

680
SAUS80 KWBC 020300
MTRSAV
METAR KSAV 020253Z 08009KT 10SM SCT011 16/13 A3019 RMK AO2 SLP222
T01560133 51025


USA.gov is the U.S. government's official web portal to all federal, state and local government web resources and services.